Time;durP1;ratioP1;P1;durP2;ratioP2;P2;SDS_P1;SDS_P2;PMS_P1;PMS_P2;Temp;Humidity;BMP_temperature;BMP_pressure;BME280_temperature;BME280_humidity;BME280_pressure;Samples;Min_cycle;Max_cycle;Signal;HPM_P1;HPM_P2
2022/01/07 00:01:10;;;;;;;55.50;52.00;;;;;;;2.79;100.00;101256.41;5081497;28;20106;-82
2022/01/07 00:03:37;;;;;;;59.80;56.17;;;;;;;2.66;100.00;101258.47;5072176;28;20592;-81
2022/01/07 00:06:04;;;;;;;55.40;52.00;;;;;;;2.77;100.00;101262.75;5076082;28;20102;-80
2022/01/07 00:08:31;;;;;;;51.45;48.28;;;;;;;2.87;100.00;101253.88;5083778;28;20097;-80
2022/01/07 00:10:58;;;;;;;57.17;53.63;;;;;;;2.87;100.00;101267.00;5080703;28;20110;-80
2022/01/07 00:13:25;;;;;;;51.38;48.28;;;;;;;3.06;100.00;101268.75;5084983;28;20045;-80
2022/01/07 00:15:54;;;;;;;53.05;49.92;;;;;;;3.24;100.00;101268.84;5081882;28;20124;-81
2022/01/07 00:18:23;;;;;;;53.05;49.65;;;;;;;3.07;100.00;101267.78;5067353;28;20049;-80
2022/01/07 00:20:50;;;;;;;50.67;47.92;;;;;;;3.92;100.00;101273.72;5076200;28;20135;-81
2022/01/07 00:23:16;;;;;;;48.40;45.30;;;;;;;3.04;100.00;101268.06;5087029;28;20116;-81
2022/01/07 00:25:43;;;;;;;52.05;48.58;;;;;;;2.92;100.00;101271.84;5082689;28;20454;-82
2022/01/07 00:28:10;;;;;;;47.67;44.60;;;;;;;3.42;100.00;101269.72;5081819;28;20053;-81
2022/01/07 00:30:37;;;;;;;45.42;42.47;;;;;;;2.92;100.00;101272.66;5074175;28;20459;-80
2022/01/07 00:33:05;;;;;;;47.85;44.75;;;;;;;3.00;100.00;101271.97;5077509;28;20095;-78
2022/01/07 00:35:33;;;;;;;50.50;47.50;;;;;;;3.00;100.00;101271.97;5075141;28;20045;-81
2022/01/07 00:38:00;;;;;;;49.58;46.78;;;;;;;3.05;100.00;101290.69;5068545;28;20447;-81
2022/01/07 00:40:28;;;;;;;49.05;45.95;;;;;;;3.08;100.00;101290.41;5079379;28;20056;-79
2022/01/07 00:42:55;;;;;;;52.65;49.50;;;;;;;3.08;100.00;101290.41;5064509;28;20048;-81
2022/01/07 00:45:24;;;;;;;54.85;51.50;;;;;;;3.13;100.00;101287.38;5074769;28;20095;-81
2022/01/07 00:47:52;;;;;;;53.72;50.72;;;;;;;3.44;100.00;101294.00;5075121;28;20044;-81
2022/01/07 00:50:21;;;;;;;48.00;45.13;;;;;;;3.06;100.00;101302.06;5064107;28;20550;-81
2022/01/07 00:52:50;;;;;;;55.15;51.75;;;;;;;3.15;100.00;101306.44;5067029;28;20473;-80
2022/01/07 00:55:18;;;;;;;53.45;50.38;;;;;;;3.04;100.00;101301.34;5076948;28;20095;-81
2022/01/07 00:57:46;;;;;;;50.03;47.13;;;;;;;2.98;100.00;101306.19;5069952;28;20044;-80
2022/01/07 01:00:15;;;;;;;50.22;47.20;;;;;;;3.18;100.00;101301.72;5074849;28;20045;-80
2022/01/07 01:02:42;;;;;;;49.13;46.13;;;;;;;3.46;100.00;101309.63;5073466;28;20460;-82
2022/01/07 01:05:12;;;;;;;47.20;44.30;;;;;;;3.79;100.00;101313.50;5072206;28;20041;-81
2022/01/07 01:07:39;;;;;;;46.30;43.58;;;;;;;3.23;100.00;101314.41;5065249;28;20117;-82
2022/01/07 01:10:08;;;;;;;50.60;47.25;;;;;;;3.25;100.00;101319.53;5079234;28;20044;-81
2022/01/07 01:12:36;;;;;;;51.30;48.30;;;;;;;3.24;100.00;101317.88;5072394;28;20102;-80
2022/01/07 01:15:04;;;;;;;48.65;45.85;;;;;;;3.17;100.00;101331.56;5080592;28;20398;-80
2022/01/07 01:17:31;;;;;;;53.33;50.13;;;;;;;3.22;100.00;101318.03;5085091;28;20117;-80
2022/01/07 01:19:57;;;;;;;53.38;50.03;;;;;;;3.26;100.00;101319.38;5073976;28;20056;-80
2022/01/07 01:22:24;;;;;;;46.72;43.80;;;;;;;3.27;100.00;101325.44;5086153;28;20052;-81
2022/01/07 01:24:51;;;;;;;48.38;45.45;;;;;;;3.27;100.00;101323.69;5080896;28;20129;-82
2022/01/07 01:27:19;;;;;;;54.30;50.78;;;;;;;3.31;100.00;101327.66;5090379;28;20060;-81
2022/01/07 01:29:46;;;;;;;49.30;45.97;;;;;;;3.38;100.00;101333.97;5078010;28;20184;-81
2022/01/07 01:32:12;;;;;;;47.17;44.22;;;;;;;3.47;100.00;101339.34;5084233;28;20549;-80
2022/01/07 01:34:39;;;;;;;48.60;45.53;;;;;;;3.45;100.00;101339.50;5073000;28;20538;-80
2022/01/07 01:37:06;;;;;;;45.67;42.80;;;;;;;3.40;100.00;101339.94;5083781;28;20056;-82
2022/01/07 01:39:33;;;;;;;44.45;41.75;;;;;;;3.36;100.00;101338.56;5072526;28;20049;-79
2022/01/07 01:42:00;;;;;;;51.55;48.17;;;;;;;3.40;100.00;101337.31;5089652;28;20056;-79
2022/01/07 01:44:28;;;;;;;54.08;50.58;;;;;;;3.62;100.00;101333.47;5083551;28;20067;-82
2022/01/07 01:46:56;;;;;;;47.72;44.70;;;;;;;3.36;100.00;101346.44;5084132;28;20537;-80
2022/01/07 01:49:23;;;;;;;48.83;45.70;;;;;;;3.56;100.00;101339.31;5088141;28;20059;-80
2022/01/07 01:51:50;;;;;;;47.63;44.60;;;;;;;3.44;100.00;101345.72;5085992;28;20044;-81
2022/01/07 01:54:17;;;;;;;49.40;46.40;;;;;;;3.55;100.00;101355.22;5080708;28;20131;-80
2022/01/07 01:56:45;;;;;;;49.92;46.85;;;;;;;3.54;100.00;101341.28;5079799;28;20044;-82
2022/01/07 01:59:11;;;;;;;51.67;48.30;;;;;;;4.24;100.00;101343.38;5079141;28;20400;-80
2022/01/07 02:01:40;;;;;;;47.20;44.13;;;;;;;4.03;100.00;101344.47;5067540;28;20110;-80
2022/01/07 02:04:07;;;;;;;43.55;40.70;;;;;;;3.65;100.00;101343.69;5083478;28;20059;-81
2022/01/07 02:06:36;;;;;;;50.28;47.03;;;;;;;3.72;100.00;101345.75;5073535;28;20541;-82
2022/01/07 02:09:03;;;;;;;46.85;43.88;;;;;;;3.56;100.00;101343.75;5075757;28;20055;-82
2022/01/07 02:11:31;;;;;;;45.03;41.47;;;;;;;3.44;100.00;101350.97;5081164;28;20488;-80
2022/01/07 02:13:58;;;;;;;48.83;45.75;;;;;;;3.48;100.00;101348.88;5075926;28;20060;-80
2022/01/07 02:16:26;;;;;;;52.08;48.70;;;;;;;3.47;100.00;101353.31;5085082;28;20048;-80
2022/01/07 02:18:54;;;;;;;48.45;45.22;;;;;;;3.53;100.00;101346.66;5083293;28;20074;-79
2022/01/07 02:21:24;;;;;;;49.55;46.10;;;;;;;3.58;100.00;101347.88;5081154;28;20044;-81
2022/01/07 02:23:51;;;;;;;52.92;49.53;;;;;;;3.56;100.00;101351.63;5077338;28;20052;-81
2022/01/07 02:26:19;;;;;;;48.30;44.88;;;;;;;3.54;100.00;101364.06;5082128;28;20040;-80
2022/01/07 02:28:47;;;;;;;47.13;43.83;;;;;;;3.57;100.00;101356.75;5081643;28;20044;-82
2022/01/07 02:31:14;;;;;;;44.78;40.72;;;;;;;3.54;100.00;101375.41;5068089;28;20393;-80
2022/01/07 02:33:41;;;;;;;42.40;39.17;;;;;;;3.79;100.00;101370.47;5080809;28;20048;-81
2022/01/07 02:36:08;;;;;;;47.05;44.05;;;;;;;3.59;100.00;101385.47;5083622;28;20128;-80
2022/01/07 02:38:37;;;;;;;47.97;44.60;;;;;;;3.68;100.00;101380.19;5072011;28;20047;-81
2022/01/07 02:41:04;;;;;;;53.05;49.42;;;;;;;3.65;100.00;101392.78;5080825;28;20070;-80
2022/01/07 02:43:33;;;;;;;48.08;44.72;;;;;;;3.59;100.00;101385.47;5073767;28;20048;-81
2022/01/07 02:46:00;;;;;;;47.85;44.65;;;;;;;3.56;100.00;101385.75;5079409;28;20791;-79
2022/01/07 02:48:26;;;;;;;50.47;47.05;;;;;;;3.58;100.00;101389.91;5074150;28;20060;-79
2022/01/07 02:50:53;;;;;;;50.25;46.55;;;;;;;3.67;100.00;101388.22;5077535;28;20141;-80
2022/01/07 02:53:20;;;;;;;49.92;46.53;;;;;;;3.74;100.00;101399.81;5072205;28;20048;-80
2022/01/07 02:55:50;;;;;;;52.75;48.65;;;;;;;3.58;100.00;101396.97;5072152;28;20049;-81
2022/01/07 02:58:17;;;;;;;50.70;47.13;;;;;;;3.47;100.00;101405.84;5078948;28;20131;-83
2022/01/07 03:01:27;;;;;;;50.25;46.85;;;;;;;3.57;100.00;101409.28;5180229;22;21083;-80
2022/01/07 03:03:54;;;;;;;53.63;49.67;;;;;;;3.65;100.00;101416.44;4985041;28;20054;-81
2022/01/07 03:06:21;;;;;;;49.50;46.15;;;;;;;3.87;100.00;101408.19;4983725;28;20051;-80
2022/01/07 03:08:49;;;;;;;49.67;46.38;;;;;;;3.69;100.00;101423.03;4989706;28;20057;-80
2022/01/07 03:11:17;;;;;;;59.53;55.75;;;;;;;3.63;100.00;101428.88;4983392;28;20055;-81
2022/01/07 03:13:44;;;;;;;49.60;46.13;;;;;;;3.70;100.00;101429.16;4986691;28;20058;-81
2022/01/07 03:16:11;;;;;;;51.58;48.08;;;;;;;3.71;100.00;101436.06;4980029;28;20475;-80
2022/01/07 03:18:39;;;;;;;53.05;49.60;;;;;;;3.70;100.00;101434.41;5008482;28;20049;-80
2022/01/07 03:21:06;;;;;;;53.42;49.83;;;;;;;3.80;100.00;101445.69;4983247;28;20054;-82
2022/01/07 03:23:33;;;;;;;48.55;45.08;;;;;;;3.67;100.00;101441.59;4988695;28;20058;-80
2022/01/07 03:26:00;;;;;;;55.03;51.03;;;;;;;3.64;100.00;101444.50;4985520;28;20469;-81
2022/01/07 03:28:28;;;;;;;57.42;53.72;;;;;;;3.70;100.00;101442.28;4985081;28;20109;-81
2022/01/07 03:30:55;;;;;;;46.63;43.63;;;;;;;4.28;100.00;101439.41;4983724;28;20104;-81
2022/01/07 03:33:22;;;;;;;51.42;47.90;;;;;;;3.72;100.00;101448.22;4985873;28;20061;-81
2022/01/07 03:35:49;;;;;;;55.63;51.83;;;;;;;3.71;100.00;101444.75;4991458;28;20049;-82
2022/01/07 03:38:16;;;;;;;52.15;48.45;;;;;;;3.74;100.00;101457.59;4996485;28;20046;-82
2022/01/07 03:40:43;;;;;;;48.20;45.13;;;;;;;3.84;100.00;101463.69;4985408;28;20116;-80
2022/01/07 03:43:09;;;;;;;51.75;48.17;;;;;;;4.00;100.00;101463.06;4983604;28;20124;-80
2022/01/07 03:45:38;;;;;;;50.58;46.90;;;;;;;3.80;100.00;101466.72;4985482;28;20055;-79
2022/01/07 03:48:05;;;;;;;50.70;46.85;;;;;;;3.97;100.00;101457.28;4996197;28;20364;-80
2022/01/07 03:50:32;;;;;;;57.33;52.90;;;;;;;3.74;100.00;101464.66;4992254;28;20039;-82
2022/01/07 03:52:59;;;;;;;54.85;50.78;;;;;;;4.35;100.00;101451.78;4984689;28;20392;-80
2022/01/07 03:55:28;;;;;;;49.80;46.33;;;;;;;4.23;100.00;101452.16;4986221;28;20046;-80
2022/01/07 03:57:55;;;;;;;50.22;47.30;;;;;;;5.49;100.00;101451.19;4986603;28;20046;-79
2022/01/07 04:00:31;;;;;;;53.50;50.10;;;;;;;3.82;100.00;101457.72;4991419;28;20108;-80
2022/01/07 04:03:00;;;;;;;46.20;42.90;;;;;;;3.83;100.00;101455.94;5012462;28;20152;-80
2022/01/07 04:05:27;;;;;;;49.20;45.80;;;;;;;4.04;100.00;101455.72;5035426;28;20111;-80
2022/01/07 04:07:53;;;;;;;53.60;49.67;;;;;;;3.83;100.00;101464.63;5037422;28;20473;-80
2022/01/07 04:10:20;;;;;;;47.55;44.25;;;;;;;4.19;100.00;101464.75;5028774;28;20053;-80
2022/01/07 04:12:47;;;;;;;46.22;43.03;;;;;;;3.87;100.00;101460.75;5025179;28;20061;-80
2022/01/07 04:15:14;;;;;;;56.13;51.97;;;;;;;3.80;100.00;101469.34;5024495;28;20057;-80
2022/01/07 04:17:42;;;;;;;50.72;47.15;;;;;;;3.77;100.00;101475.72;5025870;28;20410;-82
2022/01/07 04:20:14;;;;;;;47.88;44.13;;;;;;;3.80;100.00;101475.44;5025057;28;20098;-81
2022/01/07 04:22:41;;;;;;;58.50;54.00;;;;;;;3.78;100.00;101472.13;5031387;28;20111;-80
2022/01/07 04:25:13;;;;;;;53.97;50.15;;;;;;;3.99;100.00;101469.28;5024693;28;20089;-80
2022/01/07 04:27:40;;;;;;;50.25;46.25;;;;;;;3.70;100.00;101477.28;5024426;28;20053;-81
2022/01/07 04:30:07;;;;;;;55.67;51.58;;;;;;;4.40;100.00;101466.34;5025809;28;20364;-81
2022/01/07 04:32:34;;;;;;;54.75;50.55;;;;;;;3.76;100.00;101476.69;5025509;28;20042;-80
2022/01/07 04:35:01;;;;;;;49.97;45.67;;;;;;;3.76;100.00;101475.88;5036226;28;20057;-81
2022/01/07 04:37:29;;;;;;;55.15;49.90;;;;;;;3.78;100.00;101469.50;5038850;28;20132;-81
2022/01/07 04:39:56;;;;;;;54.33;50.35;;;;;;;4.15;100.00;101471.31;5023773;28;20046;-81
2022/01/07 04:42:23;;;;;;;53.97;49.60;;;;;;;3.94;100.00;101473.31;5037622;28;20052;-80
2022/01/07 04:44:49;;;;;;;50.65;46.47;;;;;;;4.16;100.00;101472.94;5026903;28;20054;-80
2022/01/07 04:47:16;;;;;;;50.90;46.80;;;;;;;3.90;100.00;101489.38;5027881;28;20049;-80
2022/01/07 04:49:43;;;;;;;50.92;46.97;;;;;;;3.93;100.00;101483.00;5020406;28;20119;-82
2022/01/07 04:52:10;;;;;;;47.13;43.40;;;;;;;3.93;100.00;101485.63;5030267;28;20045;-82
2022/01/07 04:54:38;;;;;;;52.22;48.08;;;;;;;3.87;100.00;101496.69;5028214;28;20054;-81
2022/01/07 04:57:05;;;;;;;51.35;47.25;;;;;;;3.80;100.00;101496.44;5027567;28;20075;-81
2022/01/07 04:59:32;;;;;;;48.35;44.67;;;;;;;3.98;100.00;101500.97;5027409;28;20057;-78
2022/01/07 05:01:58;;;;;;;49.38;45.25;;;;;;;3.81;100.00;101510.41;5028482;28;20061;-80
2022/01/07 05:04:25;;;;;;;55.75;51.35;;;;;;;3.88;100.00;101508.91;5022860;28;20112;-81
2022/01/07 05:06:52;;;;;;;77.65;71.35;;;;;;;3.85;100.00;101511.81;5021674;28;20111;-80
2022/01/07 05:09:20;;;;;;;85.22;78.10;;;;;;;4.09;100.00;101520.03;5030447;28;20069;-81
2022/01/07 05:11:50;;;;;;;82.50;75.63;;;;;;;3.87;100.00;101520.34;5029808;28;20551;-78
2022/01/07 05:14:17;;;;;;;84.63;77.88;;;;;;;3.92;100.00;101517.31;5025114;28;20057;-80
2022/01/07 05:16:44;;;;;;;75.38;69.68;;;;;;;3.87;100.00;101530.88;5027446;28;20119;-80
2022/01/07 05:19:11;;;;;;;74.25;69.10;;;;;;;3.89;100.00;101521.88;5027197;28;20115;-82
2022/01/07 05:21:39;;;;;;;56.05;51.80;;;;;;;3.77;100.00;101515.13;5028312;28;20126;-80
2022/01/07 05:24:06;;;;;;;53.40;49.58;;;;;;;3.77;100.00;101537.97;5031253;28;20061;-80
2022/01/07 05:26:34;;;;;;;60.10;55.30;;;;;;;3.77;100.00;101533.53;5026625;28;20049;-82
2022/01/07 05:29:03;;;;;;;59.25;54.10;;;;;;;3.79;100.00;101534.22;5025785;28;20448;-82
2022/01/07 05:31:30;;;;;;;55.17;50.88;;;;;;;3.79;100.00;101546.53;5032095;28;20046;-80
2022/01/07 05:33:57;;;;;;;50.72;46.80;;;;;;;3.83;100.00;101547.91;5030129;28;20457;-81
2022/01/07 05:36:23;;;;;;;48.03;44.35;;;;;;;3.76;100.00;101557.34;5042117;28;20041;-80
2022/01/07 05:38:51;;;;;;;52.55;48.65;;;;;;;3.72;100.00;101556.75;5031888;28;20046;-81
2022/01/07 05:41:19;;;;;;;52.38;48.42;;;;;;;3.81;100.00;101563.81;5038008;28;20053;-80
2022/01/07 05:43:45;;;;;;;48.45;44.63;;;;;;;3.83;100.00;101563.66;5031387;28;20054;-80
2022/01/07 05:46:15;;;;;;;55.42;51.28;;;;;;;3.73;100.00;101562.88;5036324;28;20122;-81
2022/01/07 05:48:42;;;;;;;60.22;56.35;;;;;;;3.71;100.00;101557.75;5033502;28;20128;-80
2022/01/07 05:51:09;;;;;;;59.45;55.47;;;;;;;3.72;100.00;101564.66;5030997;28;20058;-81
2022/01/07 05:53:36;;;;;;;57.55;53.25;;;;;;;3.83;100.00;101574.19;5030681;28;20448;-79
2022/01/07 05:56:03;;;;;;;57.55;53.75;;;;;;;3.84;100.00;101578.47;5032969;28;20057;-81
2022/01/07 05:58:29;;;;;;;74.05;68.55;;;;;;;3.76;100.00;101580.97;5028265;28;20045;-81
2022/01/07 06:00:56;;;;;;;80.22;73.30;;;;;;;3.74;100.00;101578.47;5029830;28;20049;-79
2022/01/07 06:03:24;;;;;;;80.18;73.10;;;;;;;3.79;100.00;101576.28;5021794;28;20053;-80
2022/01/07 06:05:51;;;;;;;79.80;73.00;;;;;;;3.74;100.00;101578.47;5030935;28;20045;-81
2022/01/07 06:08:18;;;;;;;78.45;71.65;;;;;;;3.72;100.00;101584.84;5031311;28;20042;-81
2022/01/07 06:10:45;;;;;;;83.20;76.10;;;;;;;3.83;100.00;101593.41;5024169;28;20048;-80
2022/01/07 06:13:12;;;;;;;85.60;77.05;;;;;;;3.72;100.00;101595.34;5023458;28;20128;-80
2022/01/07 06:15:38;;;;;;;78.60;71.78;;;;;;;3.71;100.00;101597.16;5028950;28;20391;-79
2022/01/07 06:18:06;;;;;;;77.95;71.45;;;;;;;3.74;100.00;101602.13;5031636;28;20049;-81
2022/01/07 06:20:34;;;;;;;76.38;69.63;;;;;;;3.77;100.00;101603.66;5032612;28;20046;-81
2022/01/07 06:23:01;;;;;;;80.97;74.18;;;;;;;3.66;100.00;101602.84;5025477;28;20154;-80
2022/01/07 06:25:28;;;;;;;79.47;72.97;;;;;;;3.80;100.00;101608.63;5026084;28;20053;-81
2022/01/07 06:27:55;;;;;;;78.60;71.97;;;;;;;3.77;100.00;101611.53;5027055;28;20068;-80
2022/01/07 06:30:21;;;;;;;75.25;68.65;;;;;;;3.81;100.00;101613.75;5032208;28;20054;-81
2022/01/07 06:32:48;;;;;;;74.00;67.60;;;;;;;3.75;100.00;101614.31;5031867;28;20042;-80
2022/01/07 06:35:16;;;;;;;78.57;71.60;;;;;;;3.82;100.00;101618.03;5037062;28;20050;-80
2022/01/07 06:37:44;;;;;;;74.03;67.22;;;;;;;3.78;100.00;101615.81;5028591;28;20073;-80
2022/01/07 06:40:12;;;;;;;69.55;63.10;;;;;;;3.99;100.00;101627.00;5025552;28;20053;-79
2022/01/07 06:42:39;;;;;;;68.65;62.85;;;;;;;4.27;100.00;101635.81;5025458;28;20127;-81
2022/01/07 06:45:07;;;;;;;70.13;64.18;;;;;;;4.05;100.00;101639.56;5026604;28;20123;-81
2022/01/07 06:47:34;;;;;;;72.10;65.90;;;;;;;4.28;100.00;101640.09;5028244;28;20056;-81
2022/01/07 06:50:01;;;;;;;68.38;62.75;;;;;;;3.95;100.00;101635.31;5032090;28;20053;-80
2022/01/07 06:52:28;;;;;;;70.45;64.72;;;;;;;3.83;100.00;101640.72;5040378;28;20428;-81
2022/01/07 06:54:56;;;;;;;71.03;64.88;;;;;;;4.04;100.00;101640.56;5031196;28;20148;-80
2022/01/07 06:57:23;;;;;;;71.60;65.50;;;;;;;3.98;100.00;101643.75;5022367;28;20462;-80
2022/01/07 06:59:50;;;;;;;74.22;67.32;;;;;;;4.07;100.00;101655.22;5025728;28;20054;-80
2022/01/07 07:02:17;;;;;;;71.72;65.38;;;;;;;4.13;100.00;101660.75;5030323;28;20475;-81
2022/01/07 07:04:44;;;;;;;72.65;66.30;;;;;;;4.27;100.00;101667.38;5034818;28;20041;-82
2022/01/07 07:07:11;;;;;;;74.10;67.15;;;;;;;4.48;100.00;101666.34;5037764;28;20040;-78
2022/01/07 07:09:38;;;;;;;70.30;63.70;;;;;;;4.49;100.00;101665.38;5034563;28;20119;-80
2022/01/07 07:12:07;;;;;;;70.75;64.50;;;;;;;5.34;100.00;101671.38;5032057;28;20452;-79
2022/01/07 07:14:34;;;;;;;81.88;73.93;;;;;;;6.38;100.00;101672.50;5025670;28;20054;-80
2022/01/07 07:17:00;;;;;;;81.55;74.28;;;;;;;6.78;100.00;101673.72;5016576;28;20057;-80
2022/01/07 07:19:27;;;;;;;77.90;70.95;;;;;;;4.39;100.00;101678.56;5040743;28;20456;-82
2022/01/07 07:21:54;;;;;;;79.07;72.30;;;;;;;4.19;100.00;101674.31;5047368;28;20041;-78
2022/01/07 07:24:21;;;;;;;77.18;70.93;;;;;;;4.16;100.00;101674.59;5029488;28;20062;-78
2022/01/07 07:26:48;;;;;;;80.88;74.07;;;;;;;4.16;100.00;101669.34;5030222;28;20037;-82
2022/01/07 07:29:16;;;;;;;90.22;81.95;;;;;;;4.13;100.00;101671.25;5026197;28;20457;-82
2022/01/07 07:31:47;;;;;;;82.50;75.70;;;;;;;4.23;100.00;101683.56;5036054;28;20053;-80
2022/01/07 07:36:58;;;;;;;80.28;73.40;;;;;;;4.25;100.00;101684.25;5034720;28;20040;-80
2022/01/07 07:39:25;;;;;;;78.03;71.43;;;;;;;4.19;100.00;101683.03;5033387;28;20041;-79
2022/01/07 07:41:51;;;;;;;80.20;73.13;;;;;;;4.15;100.00;101676.41;5032484;28;20045;-79
2022/01/07 07:44:19;;;;;;;77.22;70.07;;;;;;;4.25;100.00;101679.00;5039279;28;20123;-82
2022/01/07 07:46:46;;;;;;;87.50;78.50;;;;;;;4.24;100.00;101680.00;5034354;28;20122;-80
2022/01/07 07:49:14;;;;;;;80.43;72.85;;;;;;;4.23;100.00;101676.50;5033869;28;20050;-77
2022/01/07 07:51:41;;;;;;;79.28;72.00;;;;;;;4.13;100.00;101673.91;5037177;28;20045;-80
2022/01/07 07:54:10;;;;;;;74.38;68.07;;;;;;;4.04;100.00;101684.41;5036369;28;20115;-80
2022/01/07 07:56:38;;;;;;;74.75;68.30;;;;;;;4.17;100.00;101678.88;5036361;28;20390;-77
2022/01/07 07:59:05;;;;;;;74.90;68.35;;;;;;;4.27;100.00;101683.16;5032343;28;20053;-80
2022/01/07 08:01:33;;;;;;;71.07;65.28;;;;;;;4.35;100.00;101685.88;5032422;28;20053;-78
2022/01/07 08:04:00;;;;;;;75.82;69.25;;;;;;;4.13;100.00;101679.16;5031493;28;20061;-82
2022/01/07 08:06:26;;;;;;;74.53;68.43;;;;;;;4.20;100.00;101682.03;5031223;28;20042;-79
2022/01/07 08:09:00;;;;;;;73.95;67.82;;;;;;;4.33;100.00;101679.97;5031767;28;20105;-80
2022/01/07 08:11:31;;;;;;;77.72;71.15;;;;;;;4.34;100.00;101691.31;5032841;28;20478;-81
2022/01/07 08:16:43;;;;;;;79.32;72.85;;;;;;;4.19;100.00;101684.84;5030065;28;20459;-81
2022/01/07 08:19:10;;;;;;;79.75;72.72;;;;;;;4.13;100.00;101679.16;5037199;28;20049;-82
2022/01/07 08:21:36;;;;;;;78.15;71.55;;;;;;;4.20;100.00;101689.94;5030911;28;20054;-82
2022/01/07 08:24:03;;;;;;;76.22;69.93;;;;;;;4.27;100.00;101682.34;5037614;28;20111;-82
2022/01/07 08:26:30;;;;;;;75.28;69.15;;;;;;;4.26;100.00;101691.19;5039066;28;20052;-80
2022/01/07 08:29:00;;;;;;;72.68;66.22;;;;;;;4.19;100.00;101687.47;5033115;28;20115;-79
2022/01/07 08:36:54;;;;;;;73.38;67.45;;;;;;;4.28;100.00;101694.50;5035574;28;20056;-82
2022/01/07 08:39:22;;;;;;;74.78;68.25;;;;;;;4.26;100.00;101693.81;5036491;28;20053;-82
2022/01/07 08:41:49;;;;;;;71.30;65.20;;;;;;;4.22;100.00;101685.38;5035155;28;20114;-80
2022/01/07 08:44:16;;;;;;;62.88;57.58;;;;;;;4.13;100.00;101684.41;5034096;28;20049;-82
2022/01/07 08:46:43;;;;;;;69.05;62.47;;;;;;;4.32;100.00;101686.16;5030713;28;20120;-80
2022/01/07 08:49:11;;;;;;;81.57;72.85;;;;;;;4.44;100.00;101678.13;5037051;28;20156;-80
2022/01/07 08:51:40;;;;;;;86.25;77.15;;;;;;;4.36;100.00;101684.13;5038467;28;20045;-82
2022/01/07 08:54:07;;;;;;;85.10;76.45;;;;;;;4.38;100.00;101682.16;5032514;28;20054;-79
2022/01/07 08:56:35;;;;;;;83.03;75.22;;;;;;;4.23;100.00;101684.38;5031589;28;20187;-78
2022/01/07 08:59:02;;;;;;;81.30;73.57;;;;;;;4.40;100.00;101690.75;5031001;28;20046;-79
2022/01/07 09:01:29;;;;;;;70.20;64.43;;;;;;;4.40;100.00;101693.38;5039836;28;20041;-80
2022/01/07 09:03:56;;;;;;;72.57;66.38;;;;;;;4.98;100.00;101695.81;5025026;28;20053;-77
2022/01/07 09:06:24;;;;;;;80.40;73.40;;;;;;;4.49;100.00;101696.97;5028877;28;20050;-82
2022/01/07 09:08:51;;;;;;;71.43;65.22;;;;;;;4.29;100.00;101693.53;5025108;28;20517;-82
2022/01/07 09:11:18;;;;;;;70.22;64.22;;;;;;;4.23;100.00;101700.16;5033536;28;20049;-78
2022/01/07 09:13:45;;;;;;;76.45;69.90;;;;;;;4.36;100.00;101702.53;5031280;28;20049;-81
2022/01/07 09:16:12;;;;;;;78.00;71.30;;;;;;;4.22;100.00;101698.53;5031522;28;20049;-82
2022/01/07 09:18:39;;;;;;;79.93;72.95;;;;;;;4.35;100.00;101695.59;5042703;28;20439;-80
2022/01/07 09:21:06;;;;;;;77.65;71.03;;;;;;;4.34;100.00;101701.84;5037149;28;20045;-82
2022/01/07 09:23:34;;;;;;;73.85;67.47;;;;;;;4.46;100.00;101698.06;5037552;28;20053;-80
2022/01/07 09:26:01;;;;;;;77.72;70.57;;;;;;;4.24;100.00;101693.97;5021499;28;20049;-83
2022/01/07 09:28:28;;;;;;;77.13;70.30;;;;;;;4.30;100.00;101689.94;5028751;28;20143;-82
2022/01/07 09:30:54;;;;;;;77.43;70.70;;;;;;;4.33;100.00;101697.56;5032030;28;20049;-82
2022/01/07 09:33:21;;;;;;;74.55;68.15;;;;;;;4.41;100.00;101699.47;5031841;28;20049;-80
2022/01/07 09:35:50;;;;;;;73.07;66.97;;;;;;;4.39;100.00;101696.97;5030531;28;20049;-82
2022/01/07 09:38:17;;;;;;;72.68;66.50;;;;;;;4.26;100.00;101696.44;5028027;28;20041;-79
2022/01/07 09:40:45;;;;;;;71.22;65.35;;;;;;;4.48;100.00;101695.28;5032238;28;20118;-81
2022/01/07 09:43:15;;;;;;;76.00;69.30;;;;;;;4.33;100.00;101692.28;5025568;28;20053;-82
2022/01/07 09:45:41;;;;;;;74.57;68.45;;;;;;;4.31;100.00;101686.34;5029913;28;20395;-80
2022/01/07 09:48:09;;;;;;;73.45;67.32;;;;;;;4.23;100.00;101689.66;5027919;28;20045;-82
2022/01/07 09:50:38;;;;;;;70.80;64.15;;;;;;;4.17;100.00;101692.84;5031893;28;20049;-82
2022/01/07 09:53:06;;;;;;;76.95;69.82;;;;;;;4.19;100.00;101688.28;5030132;28;20459;-84
2022/01/07 09:55:33;;;;;;;76.03;69.40;;;;;;;4.25;100.00;101676.38;5030342;28;20485;-85
2022/01/07 09:58:03;;;;;;;71.82;66.18;;;;;;;4.53;100.00;101687.78;5026342;28;20331;-82
2022/01/07 10:00:35;;;;;;;72.07;66.25;;;;;;;4.45;100.00;101690.31;5023957;28;20045;-84
2022/01/07 10:03:03;;;;;;;75.03;68.38;;;;;;;4.50;100.00;101683.66;5022031;28;20170;-80
2022/01/07 10:05:31;;;;;;;74.30;67.97;;;;;;;4.46;100.00;101682.28;5029077;28;20120;-78
2022/01/07 10:08:16;;;;;;;74.90;67.93;;;;;;;4.25;100.00;101692.97;5026380;28;20127;-80
2022/01/07 10:10:42;;;;;;;76.20;69.10;;;;;;;4.24;100.00;101687.88;5025176;28;20053;-81
2022/01/07 10:13:10;;;;;;;75.65;69.15;;;;;;;4.38;100.00;101689.22;5034215;28;20449;-82
2022/01/07 10:15:39;;;;;;;80.80;74.05;;;;;;;4.52;100.00;101696.69;5029184;28;20045;-82
2022/01/07 10:18:07;;;;;;;82.22;75.32;;;;;;;4.54;100.00;101681.59;5025711;28;20050;-82
2022/01/07 10:20:43;;;;;;;81.82;74.68;;;;;;;4.70;100.00;101686.25;5016661;28;20050;-80
2022/01/07 10:23:12;;;;;;;79.53;72.72;;;;;;;4.42;100.00;101687.97;5032258;28;20051;-80
2022/01/07 10:25:40;;;;;;;75.90;69.53;;;;;;;4.69;100.00;101677.53;5031001;28;20496;-81
2022/01/07 10:28:08;;;;;;;74.95;68.38;;;;;;;4.97;100.00;101683.63;5028179;28;20041;-81
2022/01/07 10:30:39;;;;;;;75.93;69.43;;;;;;;4.98;100.00;101677.38;5029605;28;20107;-82
2022/01/07 10:33:17;;;;;;;77.15;70.18;;;;;;;4.97;100.00;101682.81;5025683;28;20049;-82
2022/01/07 10:35:53;;;;;;;75.30;69.22;;;;;;;4.88;100.00;101678.41;5030039;28;20060;-83
2022/01/07 10:38:21;;;;;;;74.65;68.35;;;;;;;5.27;100.00;101687.78;5027081;28;20038;-79
2022/01/07 10:40:50;;;;;;;72.75;65.57;;;;;;;4.83;100.00;101684.94;5022805;28;20394;-81
2022/01/07 10:43:19;;;;;;;71.70;65.25;;;;;;;4.97;100.00;101682.81;5023454;28;20050;-82
2022/01/07 10:45:49;;;;;;;72.80;66.03;;;;;;;5.18;100.00;101682.56;5031094;28;20111;-82
2022/01/07 10:48:17;;;;;;;73.10;66.05;;;;;;;5.16;100.00;101679.25;5031968;28;20107;-81
2022/01/07 10:50:45;;;;;;;70.22;63.63;;;;;;;5.18;100.00;101679.94;5031294;28;20041;-78
2022/01/07 10:53:25;;;;;;;77.57;70.72;;;;;;;5.18;100.00;101678.13;5022762;28;20104;-79
2022/01/07 10:56:07;;;;;;;80.93;73.53;;;;;;;5.26;100.00;101682.63;5024462;28;20140;-80
2022/01/07 10:59:02;;;;;;;89.82;81.40;;;;;;;5.24;100.00;101672.28;5024811;28;20042;-80
2022/01/07 11:01:35;;;;;;;80.32;73.50;;;;;;;4.82;100.00;101669.28;5024708;28;20175;-83
2022/01/07 11:04:11;;;;;;;83.40;76.35;;;;;;;5.15;100.00;101674.97;5025011;28;20073;-81
2022/01/07 11:06:39;;;;;;;81.55;74.45;;;;;;;5.58;100.00;101669.00;5024860;28;20050;-79
2022/01/07 11:09:10;;;;;;;85.95;77.90;;;;;;;5.45;100.00;101673.81;5026494;28;20138;-78
2022/01/07 11:11:46;;;;;;;77.72;70.75;;;;;;;5.35;100.00;101668.59;5028401;28;20119;-82
2022/01/07 11:14:16;;;;;;;79.65;72.20;;;;;;;5.24;100.00;101676.72;5026842;28;20053;-82
2022/01/07 11:16:44;;;;;;;84.90;77.35;;;;;;;5.45;100.00;101671.19;5029430;28;20466;-79
2022/01/07 11:19:12;;;;;;;99.60;85.40;;;;;;;5.49;100.00;101670.72;5028882;28;20445;-81
2022/01/07 11:21:40;;;;;;;85.57;77.25;;;;;;;5.26;100.00;101669.47;5030453;28;20128;-78
2022/01/07 11:24:36;;;;;;;90.68;81.28;;;;;;;5.63;100.00;101664.13;5031185;28;20057;-78